createdAt,value
2023-05-23T00:00:08.890Z,15.1
2023-05-23T00:05:08.961Z,15.1
2023-05-23T00:10:07.984Z,15.1
2023-05-23T00:15:09.159Z,15.1
2023-05-23T00:20:08.155Z,15.1
2023-05-23T00:25:08.136Z,15.1
2023-05-23T00:30:08.121Z,15.0
2023-05-23T00:35:08.118Z,15.0
2023-05-23T00:40:08.078Z,15.1
2023-05-23T00:45:08.044Z,15.1
2023-05-23T00:50:08.070Z,15.0
2023-05-23T00:55:08.123Z,15.0
2023-05-23T01:00:08.139Z,15.0
2023-05-23T01:05:08.340Z,15.0
2023-05-23T01:10:08.323Z,15.0
2023-05-23T01:15:08.446Z,15.0
2023-05-23T01:20:18.476Z,15.0
2023-05-23T01:25:08.478Z,15.0
2023-05-23T01:30:08.471Z,15.0
2023-05-23T01:35:08.568Z,15.0
2023-05-23T01:40:08.542Z,14.8
2023-05-23T01:45:08.545Z,14.8
2023-05-23T01:50:08.557Z,14.6
2023-05-23T01:55:08.527Z,14.6
2023-05-23T02:00:08.680Z,14.3
2023-05-23T02:05:08.689Z,14.3
2023-05-23T02:10:08.714Z,14.3
2023-05-23T02:15:08.725Z,14.3
2023-05-23T02:20:08.734Z,14.3
2023-05-23T02:25:08.774Z,14.3
2023-05-23T02:30:08.808Z,14.1
2023-05-23T02:35:08.817Z,14.1
2023-05-23T02:40:08.811Z,14.1
2023-05-23T02:45:08.789Z,14.1
2023-05-23T02:50:08.830Z,14.1
2023-05-23T02:55:08.830Z,14.1
2023-05-23T03:00:08.852Z,14.1
2023-05-23T03:05:08.841Z,14.1
2023-05-23T03:10:08.860Z,14.1
2023-05-23T03:15:08.850Z,14.1
2023-05-23T03:20:08.838Z,14.1
2023-05-23T03:25:08.790Z,14.0
2023-05-23T03:30:08.746Z,14.0
2023-05-23T03:35:08.708Z,14.0
2023-05-23T03:40:08.699Z,14.0
2023-05-23T03:45:08.669Z,13.6
2023-05-23T03:50:08.653Z,13.6
2023-05-23T03:55:08.626Z,13.6
2023-05-23T04:00:08.595Z,13.8
2023-05-23T04:05:02.729Z,13.8
2023-05-23T04:10:02.865Z,13.8
2023-05-23T04:15:02.925Z,13.8
2023-05-23T04:20:02.930Z,13.8
2023-05-23T04:25:02.977Z,13.8
2023-05-23T04:30:02.002Z,13.6
2023-05-23T04:35:02.087Z,13.6
2023-05-23T04:40:02.315Z,13.6
2023-05-23T04:45:02.430Z,13.6
2023-05-23T04:50:02.537Z,13.6
2023-05-23T04:55:02.609Z,13.6
2023-05-23T05:00:03.074Z,13.6
2023-05-23T05:05:02.154Z,13.6
2023-05-23T05:10:02.369Z,13.6
2023-05-23T05:15:02.441Z,13.6
2023-05-23T05:20:02.570Z,13.8
2023-05-23T05:25:02.792Z,13.8
2023-05-23T05:30:06.808Z,13.8
2023-05-23T05:35:02.869Z,13.8
2023-05-23T05:40:03.102Z,14.0
2023-05-23T05:45:02.242Z,14.0
2023-05-23T05:50:02.401Z,14.0
2023-05-23T05:55:02.543Z,14.0
2023-05-23T06:00:02.673Z,13.6
2023-05-23T06:05:03.077Z,13.6
2023-05-23T06:10:02.279Z,13.5
2023-05-23T06:15:02.584Z,13.5
2023-05-23T06:20:02.733Z,13.3
2023-05-23T06:25:02.967Z,13.3
2023-05-23T06:30:02.107Z,12.8
2023-05-23T06:35:02.665Z,12.8
2023-05-23T06:40:03.158Z,12.8
2023-05-23T06:45:02.142Z,12.8
2023-05-23T06:50:02.205Z,12.6
2023-05-23T06:55:02.212Z,12.6
2023-05-23T07:00:02.690Z,12.8
2023-05-23T07:05:02.715Z,12.8
2023-05-23T07:10:02.862Z,12.5
2023-05-23T07:15:03.017Z,12.5
2023-05-23T07:20:02.099Z,12.5
2023-05-23T07:25:02.170Z,12.5
2023-05-23T07:30:02.187Z,12.3
2023-05-23T07:35:02.251Z,12.3
2023-05-23T07:40:02.366Z,12.6
2023-05-23T07:45:02.477Z,12.6
2023-05-23T07:50:02.635Z,12.3
2023-05-23T07:55:02.684Z,12.3
2023-05-23T08:00:02.830Z,12.5
2023-05-23T08:05:02.987Z,12.5
2023-05-23T08:10:02.056Z,12.1
2023-05-23T08:15:02.246Z,12.1
2023-05-23T08:20:02.449Z,12.1
2023-05-23T08:25:02.633Z,12.1
2023-05-23T08:30:02.857Z,12.1
2023-05-23T08:35:03.151Z,12.1
2023-05-23T08:40:02.381Z,13.5
2023-05-23T08:45:02.639Z,13.5
2023-05-23T08:50:02.779Z,16.0
2023-05-23T08:55:02.970Z,15.8
2023-05-23T09:00:02.783Z,15.8
2023-05-23T09:05:02.363Z,14.8
2023-05-23T09:10:02.555Z,14.8
2023-05-23T09:15:02.703Z,14.6
2023-05-23T09:20:02.773Z,14.3
2023-05-23T09:25:02.899Z,14.3
2023-05-23T09:30:03.094Z,14.3
2023-05-23T09:35:02.256Z,14.3
2023-05-23T09:40:02.574Z,14.6
2023-05-23T09:45:04.734Z,14.6
2023-05-23T09:50:02.224Z,15.5
2023-05-23T09:55:02.318Z,15.5
2023-05-23T10:00:02.365Z,14.5
2023-05-23T10:05:02.898Z,14.5
2023-05-23T10:10:02.987Z,14.5
2023-05-23T10:15:02.095Z,14.5
2023-05-23T10:20:10.040Z,14.8
2023-05-23T10:25:04.837Z,14.8
2023-05-23T10:30:02.920Z,15.1
2023-05-23T10:35:03.080Z,15.1
2023-05-23T10:40:02.194Z,17.0
2023-05-23T10:45:02.431Z,17.0
2023-05-23T10:50:02.660Z,17.1
2023-05-23T10:55:02.902Z,17.1
2023-05-23T11:00:03.129Z,17.2
2023-05-23T11:05:02.208Z,17.2
2023-05-23T11:10:02.407Z,17.5
2023-05-23T11:15:02.641Z,17.5
2023-05-23T11:20:02.759Z,18.2
2023-05-23T11:25:02.896Z,18.2
2023-05-23T11:30:03.147Z,18.6
2023-05-23T11:35:02.237Z,18.6
2023-05-23T11:40:12.571Z,18.8
2023-05-23T11:45:02.853Z,18.8
2023-05-23T11:50:02.961Z,18.6
2023-05-23T11:55:03.918Z,18.6
2023-05-23T12:00:02.433Z,18.2
2023-05-23T12:05:02.629Z,18.2
2023-05-23T12:10:02.921Z,19.3
2023-05-23T12:15:03.039Z,19.3
2023-05-23T12:20:02.217Z,18.1
2023-05-23T12:25:03.009Z,18.1
2023-05-23T12:30:02.068Z,20.1
2023-05-23T12:35:02.192Z,18.1
2023-05-23T12:40:02.333Z,18.5
2023-05-23T12:45:02.392Z,18.5
2023-05-23T12:50:02.577Z,20.3
2023-05-23T12:55:02.781Z,20.3
2023-05-23T13:00:02.877Z,19.1
2023-05-23T13:05:03.137Z,19.1
2023-05-23T13:10:02.368Z,17.1
2023-05-23T13:15:02.573Z,17.1
2023-05-23T13:20:02.715Z,19.1
2023-05-23T13:25:02.944Z,20.2
2023-05-23T13:30:01.976Z,20.2
2023-05-23T13:35:02.308Z,20.2
2023-05-23T13:40:02.462Z,20.7
2023-05-23T13:45:02.585Z,18.5
2023-05-23T13:50:02.738Z,18.5
2023-05-23T13:55:02.865Z,17.7
2023-05-23T14:00:03.021Z,20.0
2023-05-23T14:05:02.307Z,17.8
2023-05-23T14:10:02.510Z,19.5
2023-05-23T14:15:02.620Z,19.5
2023-05-23T14:20:02.810Z,18.2
2023-05-23T14:25:03.084Z,17.7
2023-05-23T14:30:02.303Z,19.3
2023-05-23T14:35:02.569Z,19.5
2023-05-23T14:40:02.695Z,17.5
2023-05-23T14:45:02.857Z,17.3
2023-05-23T14:50:03.000Z,17.3
2023-05-23T14:55:02.176Z,16.2
2023-05-23T15:00:02.617Z,16.2
2023-05-23T15:05:02.912Z,17.7
2023-05-23T15:10:03.115Z,17.7
2023-05-23T15:15:02.347Z,17.5
2023-05-23T15:20:03.928Z,17.5
2023-05-23T15:25:02.215Z,16.7
2023-05-23T15:30:02.526Z,16.7
2023-05-23T15:35:02.782Z,17.8
2023-05-23T15:40:03.048Z,20.0
2023-05-23T15:45:02.184Z,19.5
2023-05-23T15:50:02.261Z,19.5
2023-05-23T15:55:02.301Z,19.7
2023-05-23T16:00:02.547Z,18.2
2023-05-23T16:05:02.674Z,18.2
2023-05-23T16:10:02.740Z,19.0
2023-05-23T16:15:02.790Z,19.0
2023-05-23T16:20:02.898Z,18.5
2023-05-23T16:25:02.949Z,18.5
2023-05-23T16:30:02.053Z,18.5
2023-05-23T16:35:02.183Z,18.5
2023-05-23T16:40:02.319Z,17.8
2023-05-23T16:45:02.414Z,17.8
2023-05-23T16:50:02.606Z,17.7
2023-05-23T16:55:02.749Z,17.7
2023-05-23T17:00:02.926Z,17.3
2023-05-23T17:05:03.533Z,17.3
2023-05-23T17:10:02.709Z,15.5
2023-05-23T17:15:02.816Z,15.5
2023-05-23T17:20:03.071Z,15.1
2023-05-23T17:25:02.120Z,15.1
2023-05-23T17:30:02.618Z,16.6
2023-05-23T17:35:02.832Z,16.6
2023-05-23T17:40:03.018Z,17.1
2023-05-23T17:45:02.186Z,17.1
2023-05-23T17:50:02.333Z,16.3
2023-05-23T17:55:02.469Z,16.3
2023-05-23T18:00:02.581Z,15.8
2023-05-23T18:05:02.823Z,15.8
2023-05-23T18:10:02.949Z,15.5
2023-05-23T18:15:02.083Z,15.5
2023-05-23T18:20:02.846Z,15.1
2023-05-23T18:25:02.035Z,15.1
2023-05-23T18:30:02.152Z,14.5
2023-05-23T18:35:02.312Z,14.5
2023-05-23T18:40:02.434Z,14.0
2023-05-23T18:45:02.541Z,14.0
2023-05-23T18:50:02.652Z,12.8
2023-05-23T18:55:02.772Z,12.8
2023-05-23T19:00:02.877Z,12.6
2023-05-23T19:05:02.988Z,12.6
2023-05-23T19:10:02.092Z,12.1
2023-05-23T19:15:02.121Z,12.1
2023-05-23T19:20:02.235Z,11.8
2023-05-23T19:25:02.303Z,11.8
2023-05-23T19:30:02.468Z,11.6
2023-05-23T19:35:02.710Z,11.6
2023-05-23T19:40:02.950Z,11.3
2023-05-23T19:45:02.050Z,11.3
2023-05-23T19:50:02.196Z,11.1
2023-05-23T19:55:03.609Z,11.0
2023-05-23T20:00:02.962Z,10.8
2023-05-23T20:05:02.153Z,10.8
2023-05-23T20:10:02.315Z,10.6
2023-05-23T20:15:02.459Z,10.6
2023-05-23T20:20:02.740Z,10.5
2023-05-23T20:25:02.881Z,10.5
2023-05-23T20:30:03.004Z,10.3
2023-05-23T20:35:02.098Z,10.3
2023-05-23T20:40:02.170Z,10.1
2023-05-23T20:45:02.445Z,10.1
2023-05-23T20:50:02.617Z,10.1
2023-05-23T20:55:02.862Z,10.1
2023-05-23T21:00:03.004Z,9.8
2023-05-23T21:05:08.070Z,9.8
2023-05-23T21:10:08.094Z,9.5
2023-05-23T21:15:08.075Z,9.5
2023-05-23T21:20:08.080Z,9.5
2023-05-23T21:25:08.032Z,9.5
2023-05-23T21:30:08.037Z,9.1
2023-05-23T21:35:08.068Z,9.1
2023-05-23T21:40:08.151Z,9.1
2023-05-23T21:45:08.135Z,9.1
2023-05-23T21:50:08.113Z,9.0
2023-05-23T21:55:08.094Z,9.0
2023-05-23T22:00:08.153Z,8.8
2023-05-23T22:05:08.154Z,8.8
2023-05-23T22:10:08.182Z,8.8
2023-05-23T22:15:08.178Z,8.8
2023-05-23T22:20:08.211Z,8.6
2023-05-23T22:25:08.207Z,8.6
2023-05-23T22:30:08.181Z,8.5
2023-05-23T22:35:08.290Z,8.5
2023-05-23T22:40:08.261Z,8.3
2023-05-23T22:45:08.298Z,8.3
2023-05-23T22:50:08.286Z,8.3
2023-05-23T22:55:08.713Z,8.3
2023-05-23T23:01:16.249Z,8.1
2023-05-23T23:05:08.326Z,8.1
2023-05-23T23:10:08.714Z,8.1
2023-05-23T23:15:08.751Z,8.1
2023-05-23T23:20:08.775Z,8.0
2023-05-23T23:25:08.797Z,8.0
2023-05-23T23:30:08.772Z,7.9
2023-05-23T23:35:08.752Z,7.9
2023-05-23T23:40:08.787Z,7.9
2023-05-23T23:45:08.818Z,7.9
2023-05-23T23:50:08.822Z,7.6
2023-05-23T23:55:08.866Z,7.6
